Time;durP1;ratioP1;P1;durP2;ratioP2;P2;SDS_P1;SDS_P2;PMS_P1;PMS_P2;Temp;Humidity;BMP_temperature;BMP_pressure;BME280_temperature;BME280_humidity;BME280_pressure;Samples;Min_cycle;Max_cycle;Signal;HPM_P1;HPM_P2
2023/10/26 00:01:38;;;;;;;35.63;9.60;;;;;;;16.40;80.21;93776.00;4212914;28;20523;-70
2023/10/26 00:03:40;;;;;;;39.88;8.82;;;;;;;16.43;80.59;93773.72;4195954;28;20104;-72
2023/10/26 00:05:43;;;;;;;38.20;9.52;;;;;;;16.45;80.25;93784.09;4196558;28;20492;-71
2023/10/26 00:07:45;;;;;;;45.70;9.82;;;;;;;16.48;80.20;93783.66;4210879;28;20118;-71
2023/10/26 00:09:46;;;;;;;34.67;8.57;;;;;;;16.46;80.04;93789.16;4204962;28;20416;-73
2023/10/26 00:11:49;;;;;;;39.03;8.73;;;;;;;16.43;79.67;93786.13;4209736;28;20052;-71
2023/10/26 00:13:53;;;;;;;38.28;9.05;;;;;;;16.45;80.14;93784.09;4203305;28;20760;-71
2023/10/26 00:15:55;;;;;;;37.83;8.85;;;;;;;16.47;80.27;93795.25;4187390;28;20119;-71
2023/10/26 00:17:58;;;;;;;35.85;9.23;;;;;;;16.48;80.06;93781.03;4193947;28;20059;-70
2023/10/26 00:20:01;;;;;;;41.75;10.30;;;;;;;16.27;80.43;93769.81;4201853;28;20063;-72
2023/10/26 00:22:03;;;;;;;47.65;10.38;;;;;;;16.26;80.87;93775.31;4196615;28;20041;-71
2023/10/26 00:24:05;;;;;;;38.00;8.82;;;;;;;16.26;80.90;93765.56;4213170;28;20052;-70
2023/10/26 00:26:07;;;;;;;35.88;9.35;;;;;;;16.24;81.22;93756.22;4214772;28;20052;-73
2023/10/26 00:28:11;;;;;;;38.75;9.80;;;;;;;16.27;81.42;93758.44;4212296;28;20138;-71
2023/10/26 00:30:13;;;;;;;36.90;10.30;;;;;;;16.33;81.21;93762.84;4198543;28;20645;-71
2023/10/26 00:32:15;;;;;;;35.45;8.80;;;;;;;16.23;80.38;93758.06;4188316;28;20131;-72
2023/10/26 00:34:17;;;;;;;38.22;9.30;;;;;;;16.07;81.10;93759.41;4185993;28;20152;-72
2023/10/26 00:36:18;;;;;;;37.63;9.23;;;;;;;16.06;81.65;93770.19;4211212;28;20052;-72
2023/10/26 00:38:21;;;;;;;37.22;8.88;;;;;;;16.10;81.64;93779.31;4200847;28;20113;-72
2023/10/26 00:40:23;;;;;;;34.97;9.50;;;;;;;16.16;81.59;93767.88;4206126;28;20047;-70
2023/10/26 00:42:26;;;;;;;45.22;9.93;;;;;;;16.16;81.32;93779.25;4214339;28;20048;-72
2023/10/26 00:44:29;;;;;;;31.38;8.60;;;;;;;16.21;81.21;93764.59;4194922;28;20094;-72
2023/10/26 00:46:31;;;;;;;34.37;10.07;;;;;;;16.05;81.04;93764.09;4186357;28;20040;-69
2023/10/26 00:48:33;;;;;;;38.60;8.45;;;;;;;15.74;81.97;93775.50;4195945;28;20068;-74
2023/10/26 00:50:35;;;;;;;34.83;8.65;;;;;;;15.53;83.57;93779.22;4211075;28;20113;-70
2023/10/26 00:52:38;;;;;;;35.60;8.30;;;;;;;15.42;83.86;93772.00;4185797;28;20051;-69
2023/10/26 00:54:41;;;;;;;31.60;8.23;;;;;;;15.39;84.47;93777.69;4213711;28;20050;-70
2023/10/26 00:56:44;;;;;;;37.50;9.20;;;;;;;15.42;84.23;93767.50;4213815;28;20054;-71
2023/10/26 00:58:45;;;;;;;35.25;8.93;;;;;;;15.15;85.43;93766.84;4198198;28;20459;-72
2023/10/26 01:00:48;;;;;;;37.05;9.60;;;;;;;15.23;85.28;93758.72;4206748;28;20051;-70
2023/10/26 01:02:49;;;;;;;37.05;9.20;;;;;;;15.26;85.39;93763.56;4194799;28;20546;-71
2023/10/26 01:04:51;;;;;;;29.83;8.13;;;;;;;15.37;85.24;93770.00;4213425;28;20052;-70
2023/10/26 01:06:53;;;;;;;45.65;9.25;;;;;;;15.45;84.41;93755.75;4175744;28;20479;-71
2023/10/26 01:08:55;;;;;;;32.00;8.20;;;;;;;15.25;84.01;93761.09;4211863;28;20044;-70
2023/10/26 01:10:57;;;;;;;36.97;8.85;;;;;;;15.15;84.96;93759.75;4210834;28;20047;-71
2023/10/26 01:12:59;;;;;;;27.23;7.13;;;;;;;15.23;84.43;93758.72;4207362;28;20408;-70
2023/10/26 01:15:01;;;;;;;28.48;7.70;;;;;;;15.34;84.80;93755.41;4211718;28;20048;-72
2023/10/26 01:17:03;;;;;;;32.13;8.07;;;;;;;15.45;84.13;93753.91;4203772;28;20405;-70
2023/10/26 01:19:06;;;;;;;34.60;8.45;;;;;;;15.52;83.59;93752.03;4199743;28;20277;-70
2023/10/26 01:21:09;;;;;;;29.50;7.97;;;;;;;15.58;83.02;93745.09;4209551;28;20072;-70
2023/10/26 01:23:11;;;;;;;35.50;8.27;;;;;;;15.67;82.92;93743.00;4195032;28;20052;-70
2023/10/26 01:25:13;;;;;;;29.33;7.45;;;;;;;15.68;82.26;93752.53;4212833;28;20492;-70
2023/10/26 01:27:15;;;;;;;27.10;7.28;;;;;;;15.44;82.37;93743.56;4203013;28;20049;-70
2023/10/26 01:29:17;;;;;;;26.90;7.95;;;;;;;15.35;82.98;93759.63;4210462;28;20121;-72
2023/10/26 01:31:19;;;;;;;30.20;7.18;;;;;;;15.40;83.45;93777.50;4213174;28;20484;-71
2023/10/26 01:33:21;;;;;;;24.52;7.18;;;;;;;15.52;83.55;93770.50;4193929;28;20455;-70
2023/10/26 01:35:24;;;;;;;25.17;7.88;;;;;;;15.60;83.58;93768.66;4194813;28;20087;-71
2023/10/26 01:37:26;;;;;;;26.35;7.43;;;;;;;15.64;82.56;93770.66;4210501;28;20056;-72
2023/10/26 01:39:27;;;;;;;32.53;7.28;;;;;;;15.69;81.53;93765.53;4200500;28;20055;-72
2023/10/26 01:41:32;;;;;;;29.27;7.65;;;;;;;15.64;81.28;93769.81;4207868;28;20050;-73
2023/10/26 01:43:34;;;;;;;32.17;7.90;;;;;;;15.64;80.84;93760.09;4202379;28;20052;-72
2023/10/26 01:45:36;;;;;;;27.83;7.70;;;;;;;15.71;81.32;93760.88;4210300;28;20056;-71
2023/10/26 01:47:38;;;;;;;28.63;6.93;;;;;;;15.80;81.23;93760.63;4213467;28;20044;-71
2023/10/26 01:49:40;;;;;;;30.33;9.32;;;;;;;15.84;80.76;93759.97;4213078;28;20365;-69
2023/10/26 01:51:42;;;;;;;31.15;8.30;;;;;;;15.79;80.47;93746.63;4195102;28;20045;-71
2023/10/26 01:53:45;;;;;;;26.25;7.65;;;;;;;15.85;80.62;93747.59;4211150;28;20053;-71
2023/10/26 01:55:48;;;;;;;25.23;7.57;;;;;;;15.86;80.44;93757.94;4193392;28;20048;-69
2023/10/26 01:57:51;;;;;;;38.55;8.05;;;;;;;15.68;80.16;93749.91;4211493;28;20421;-72
2023/10/26 01:59:55;;;;;;;30.95;7.97;;;;;;;15.48;80.73;93750.84;4210714;28;20052;-70
2023/10/26 02:01:58;;;;;;;23.88;7.00;;;;;;;15.44;81.35;93767.31;4208754;28;20048;-72
2023/10/26 02:04:00;;;;;;;37.70;7.15;;;;;;;15.38;81.42;93761.06;4212775;28;20101;-69
2023/10/26 02:06:03;;;;;;;28.75;7.80;;;;;;;15.11;82.30;93750.63;4213225;28;20476;-69
2023/10/26 02:08:07;;;;;;;29.83;7.82;;;;;;;15.22;82.97;93757.06;4194978;28;20064;-73
2023/10/26 02:10:13;;;;;;;22.05;7.05;;;;;;;15.31;82.85;93757.63;4208553;28;20072;-71
2023/10/26 02:12:15;;;;;;;32.42;8.27;;;;;;;15.41;82.38;93747.44;4194505;28;20063;-71
2023/10/26 02:14:18;;;;;;;26.10;7.60;;;;;;;15.45;81.63;93748.63;4203653;28;20051;-68
2023/10/26 02:16:20;;;;;;;25.65;7.50;;;;;;;15.38;81.26;93745.22;4212152;28;20090;-71
2023/10/26 02:18:22;;;;;;;24.45;7.30;;;;;;;15.40;81.54;93760.84;4212517;28;20119;-69
2023/10/26 02:20:23;;;;;;;29.50;7.15;;;;;;;15.47;81.65;93751.06;4204846;28;20044;-68
2023/10/26 02:22:25;;;;;;;25.55;7.20;;;;;;;15.51;81.24;93750.44;4194880;28;20048;-71
2023/10/26 02:24:27;;;;;;;26.08;7.40;;;;;;;15.55;81.17;93750.78;4194011;28;20135;-69
2023/10/26 02:26:36;;;;;;;24.42;6.63;;;;;;;15.56;80.81;93747.94;4213107;28;20052;-70
2023/10/26 02:28:38;;;;;;;20.95;6.28;;;;;;;15.13;81.60;93743.31;4193934;28;20053;-68
2023/10/26 02:30:40;;;;;;;21.92;6.90;;;;;;;14.95;82.39;93744.00;4204338;28;20510;-69
2023/10/26 02:32:42;;;;;;;29.30;7.80;;;;;;;14.85;83.56;93748.09;4210773;28;20080;-69
2023/10/26 02:34:44;;;;;;;25.25;7.90;;;;;;;14.82;83.43;93753.78;4212539;28;20131;-69
2023/10/26 02:36:46;;;;;;;23.75;7.88;;;;;;;14.86;83.56;93742.63;4212337;28;20047;-72
2023/10/26 02:38:49;;;;;;;23.92;7.40;;;;;;;14.81;83.51;93747.69;4194076;28;20059;-67
2023/10/26 02:40:51;;;;;;;26.88;7.72;;;;;;;14.94;83.40;93734.47;4208279;28;20084;-71
2023/10/26 02:42:53;;;;;;;22.00;7.20;;;;;;;15.09;83.55;93746.59;4191492;28;20513;-70
2023/10/26 02:44:57;;;;;;;25.48;7.60;;;;;;;15.24;82.94;93746.31;4210775;28;20130;-70
2023/10/26 02:47:00;;;;;;;21.85;6.57;;;;;;;15.37;82.32;93733.03;4210970;28;20483;-71
2023/10/26 02:49:02;;;;;;;18.80;6.18;;;;;;;15.44;81.34;93733.81;4209387;28;20052;-71
2023/10/26 02:51:04;;;;;;;27.20;6.65;;;;;;;15.50;81.01;93743.50;4190552;28;20552;-70
2023/10/26 02:53:06;;;;;;;21.63;6.82;;;;;;;15.55;80.48;93751.63;4211665;28;20480;-72
2023/10/26 02:55:08;;;;;;;25.30;6.35;;;;;;;15.57;79.97;93746.13;4209671;28;20062;-70
2023/10/26 02:57:10;;;;;;;29.23;6.60;;;;;;;15.29;80.78;93749.13;4207724;28;20051;-69
2023/10/26 02:59:12;;;;;;;22.88;5.80;;;;;;;15.31;80.72;93755.78;4210168;28;20055;-71
2023/10/26 03:01:13;;;;;;;20.67;6.38;;;;;;;15.38;81.04;93760.22;4214832;28;20059;-70
2023/10/26 03:03:15;;;;;;;19.10;5.90;;;;;;;15.43;80.49;93752.50;4205894;28;20045;-69
2023/10/26 03:05:17;;;;;;;20.88;6.57;;;;;;;15.48;80.29;93761.38;4212259;28;20048;-69
2023/10/26 03:07:22;;;;;;;21.05;6.38;;;;;;;15.53;80.22;93760.75;4215404;28;20063;-68
2023/10/26 03:09:24;;;;;;;25.55;6.07;;;;;;;15.57;80.07;93769.88;4215774;28;20066;-72
2023/10/26 03:11:26;;;;;;;17.85;5.75;;;;;;;15.64;79.67;93756.63;4197668;28;20547;-70
2023/10/26 03:13:28;;;;;;;20.83;6.32;;;;;;;15.56;79.31;93749.78;4202726;28;20094;-72
2023/10/26 03:15:30;;;;;;;17.98;6.00;;;;;;;15.45;79.85;93756.56;4214351;28;20139;-71
2023/10/26 03:17:32;;;;;;;24.25;6.28;;;;;;;15.51;80.02;93761.00;4215395;28;20048;-72
2023/10/26 03:19:35;;;;;;;27.95;6.32;;;;;;;15.58;79.94;93760.94;4215260;28;20105;-72
2023/10/26 03:21:38;;;;;;;17.80;5.88;;;;;;;15.64;79.61;93760.09;4210950;28;20047;-70
2023/10/26 03:23:40;;;;;;;20.38;5.93;;;;;;;15.65;79.20;93761.69;4209780;28;20047;-71
2023/10/26 03:25:43;;;;;;;22.33;5.85;;;;;;;15.66;79.11;93757.22;4209784;28;20056;-71
2023/10/26 03:27:44;;;;;;;25.00;5.70;;;;;;;15.68;79.01;93740.16;4185245;28;20513;-71
2023/10/26 03:29:46;;;;;;;22.48;5.85;;;;;;;15.71;78.89;93752.13;4203176;28;20293;-72
2023/10/26 03:31:48;;;;;;;21.05;5.82;;;;;;;15.74;79.00;93749.91;4205987;28;20500;-69
2023/10/26 03:33:50;;;;;;;23.02;6.15;;;;;;;15.74;78.59;93752.56;4210369;28;20051;-72
2023/10/26 03:35:53;;;;;;;23.13;6.57;;;;;;;15.75;78.71;93742.78;4213059;28;20494;-72
2023/10/26 03:37:55;;;;;;;26.88;6.75;;;;;;;15.75;78.53;93742.78;4210490;28;20552;-71
2023/10/26 03:39:57;;;;;;;18.48;6.18;;;;;;;15.74;78.71;93744.63;4212442;28;20056;-71
2023/10/26 03:41:59;;;;;;;18.20;6.82;;;;;;;15.74;78.67;93747.28;4192670;28;20076;-71
2023/10/26 03:44:01;;;;;;;22.10;6.95;;;;;;;15.77;78.51;93744.19;4202737;28;20049;-71
2023/10/26 03:46:04;;;;;;;22.65;6.43;;;;;;;15.70;78.42;93737.28;4214838;28;20052;-69
2023/10/26 03:48:07;;;;;;;23.17;5.57;;;;;;;15.70;78.57;93734.66;4208208;28;20063;-69
2023/10/26 03:50:09;;;;;;;23.10;6.88;;;;;;;15.71;78.53;93728.38;4213857;28;20143;-72
2023/10/26 03:52:11;;;;;;;22.80;7.20;;;;;;;15.64;78.24;93727.59;4194810;28;20101;-70
2023/10/26 03:54:13;;;;;;;23.83;6.82;;;;;;;15.61;78.91;93714.81;4210604;28;20062;-71
2023/10/26 03:56:16;;;;;;;18.70;5.95;;;;;;;15.62;78.65;93719.09;4213126;28;20512;-71
2023/10/26 03:58:17;;;;;;;26.52;7.10;;;;;;;15.66;78.62;93709.69;4214692;28;20052;-72
2023/10/26 04:00:19;;;;;;;23.27;7.20;;;;;;;15.57;78.29;93707.34;4205726;28;20044;-70
2023/10/26 04:02:21;;;;;;;18.15;6.43;;;;;;;15.48;78.55;93707.81;4212762;28;20052;-71
2023/10/26 04:04:23;;;;;;;18.60;5.72;;;;;;;15.45;78.89;93714.31;4194127;28;20048;-72
2023/10/26 04:06:25;;;;;;;19.35;7.35;;;;;;;15.48;79.12;93716.53;4213277;28;20052;-72
2023/10/26 04:08:27;;;;;;;23.77;6.97;;;;;;;15.47;79.26;93704.38;4196648;28;20052;-73
2023/10/26 04:10:29;;;;;;;23.02;7.15;;;;;;;15.36;79.48;93697.94;4212476;28;20052;-72
2023/10/26 04:12:31;;;;;;;20.77;6.03;;;;;;;15.36;79.84;93707.69;4211165;28;20123;-72
2023/10/26 04:14:33;;;;;;;18.60;7.40;;;;;;;15.41;79.62;93707.03;4213614;28;20052;-72
2023/10/26 04:16:35;;;;;;;27.20;6.07;;;;;;;15.43;79.80;93705.81;4213897;28;20052;-72
2023/10/26 04:18:37;;;;;;;24.50;6.53;;;;;;;15.49;79.30;93715.53;4196420;28;20142;-71
2023/10/26 04:20:39;;;;;;;20.38;7.15;;;;;;;15.55;78.77;93709.38;4215025;28;20052;-72
2023/10/26 04:22:44;;;;;;;26.75;7.53;;;;;;;15.57;78.56;93710.00;4205479;28;20044;-72
2023/10/26 04:24:45;;;;;;;16.67;5.97;;;;;;;15.60;78.38;93726.41;4213006;28;20785;-70
2023/10/26 04:26:47;;;;;;;22.63;7.30;;;;;;;15.56;78.33;93721.56;4214764;28;20480;-73
2023/10/26 04:28:49;;;;;;;23.40;6.53;;;;;;;15.57;78.49;93725.00;4208135;28;20128;-72
2023/10/26 04:30:53;;;;;;;32.00;6.93;;;;;;;15.51;78.56;93729.31;4210650;28;20502;-72
2023/10/26 04:32:55;;;;;;;20.92;6.97;;;;;;;15.48;78.54;93719.16;4201255;28;20138;-70
2023/10/26 04:34:57;;;;;;;20.27;6.72;;;;;;;15.50;78.69;93727.69;4201180;28;20054;-72
2023/10/26 04:36:59;;;;;;;21.67;6.38;;;;;;;15.47;78.69;93707.00;4206993;28;20062;-73
2023/10/26 04:39:04;;;;;;;19.02;6.32;;;;;;;15.43;79.10;93716.38;4212521;28;20043;-72
2023/10/26 04:41:06;;;;;;;26.40;6.65;;;;;;;15.41;79.06;93710.50;4194691;28;20131;-71
2023/10/26 04:43:08;;;;;;;19.05;5.82;;;;;;;15.40;79.06;93718.59;4195666;28;20094;-73
2023/10/26 04:45:10;;;;;;;20.02;6.85;;;;;;;15.42;79.18;93727.13;4193941;28;20060;-72
2023/10/26 04:47:12;;;;;;;18.75;5.90;;;;;;;15.32;78.82;93715.22;4210170;28;20420;-72
2023/10/26 04:49:14;;;;;;;21.85;5.93;;;;;;;15.32;79.10;93720.50;4205223;28;20151;-71
2023/10/26 04:51:16;;;;;;;21.23;6.35;;;;;;;15.39;79.21;93720.44;4190903;28;20098;-72
2023/10/26 04:53:19;;;;;;;20.05;6.00;;;;;;;15.30;79.28;93709.34;4208638;28;20040;-70
2023/10/26 04:55:21;;;;;;;21.47;5.40;;;;;;;15.27;79.10;93722.13;4195912;28;20708;-73
2023/10/26 04:57:23;;;;;;;18.35;6.10;;;;;;;15.31;79.29;93725.97;4213925;28;20458;-71
2023/10/26 04:59:25;;;;;;;23.98;6.93;;;;;;;15.37;79.24;93727.75;4208371;28;20401;-73
2023/10/26 05:01:27;;;;;;;18.75;6.30;;;;;;;15.40;78.63;93718.59;4212915;28;20552;-74
2023/10/26 05:03:28;;;;;;;20.65;5.75;;;;;;;15.31;78.61;93731.25;4186465;28;20079;-70
2023/10/26 05:05:31;;;;;;;23.05;5.97;;;;;;;15.32;79.15;93738.16;4211434;28;20048;-72
2023/10/26 05:07:33;;;;;;;21.42;6.25;;;;;;;15.37;78.88;93730.41;4210786;28;20053;-72
2023/10/26 05:09:35;;;;;;;16.15;5.82;;;;;;;15.43;78.78;93720.84;4206639;28;20044;-73
2023/10/26 05:11:37;;;;;;;19.17;6.32;;;;;;;15.30;79.27;93727.00;4209906;28;20045;-73
2023/10/26 05:13:39;;;;;;;23.50;7.13;;;;;;;15.31;79.22;93742.59;4210063;28;20543;-74
2023/10/26 05:15:43;;;;;;;20.45;6.30;;;;;;;15.36;79.43;93737.53;4213664;28;20052;-70
2023/10/26 05:17:45;;;;;;;18.67;6.95;;;;;;;15.25;79.03;93726.81;4213142;28;20113;-70
2023/10/26 05:19:47;;;;;;;19.05;6.00;;;;;;;15.31;79.51;93733.88;4201563;28;20052;-72
2023/10/26 05:21:49;;;;;;;15.50;6.32;;;;;;;15.34;79.64;93744.03;4213127;28;20060;-73
2023/10/26 05:23:51;;;;;;;23.58;6.65;;;;;;;15.30;79.33;93762.09;4194762;28;20044;-71
2023/10/26 05:25:53;;;;;;;20.58;5.80;;;;;;;15.33;79.17;93768.78;4195748;28;20049;-71
2023/10/26 05:27:55;;;;;;;18.58;5.88;;;;;;;15.06;79.88;93750.47;4194562;28;20056;-71
2023/10/26 05:29:56;;;;;;;22.60;5.82;;;;;;;15.01;80.02;93762.63;4195297;28;20048;-71
2023/10/26 05:31:58;;;;;;;21.65;6.07;;;;;;;15.18;80.22;93765.63;4202075;28;20459;-71
2023/10/26 05:34:00;;;;;;;16.42;5.65;;;;;;;15.25;79.59;93758.47;4196158;28;20131;-73
2023/10/26 05:36:02;;;;;;;19.15;5.78;;;;;;;15.35;79.36;93770.19;4213268;28;20420;-71
2023/10/26 05:38:04;;;;;;;19.67;5.38;;;;;;;15.49;79.04;93775.41;4193330;28;20075;-74
2023/10/26 05:40:06;;;;;;;19.55;5.95;;;;;;;15.64;78.27;93759.25;4202072;28;20055;-72
2023/10/26 05:42:08;;;;;;;20.50;5.03;;;;;;;15.48;78.06;93757.94;4213553;28;20135;-73
2023/10/26 05:44:12;;;;;;;15.82;5.88;;;;;;;15.65;78.20;93771.47;4209517;28;20051;-73
2023/10/26 05:46:14;;;;;;;15.40;5.22;;;;;;;15.79;77.66;93762.47;4210744;28;20109;-73
2023/10/26 05:48:16;;;;;;;20.60;5.65;;;;;;;15.97;77.28;93767.81;4203777;28;20039;-73
2023/10/26 05:50:20;;;;;;;23.17;6.55;;;;;;;16.10;76.70;93774.81;4179257;28;20084;-74
2023/10/26 05:52:22;;;;;;;20.90;5.22;;;;;;;16.26;76.34;93770.00;4195586;28;20053;-74
2023/10/26 05:54:24;;;;;;;23.30;5.38;;;;;;;16.18;75.73;93793.06;4212553;28;20596;-71
2023/10/26 05:56:26;;;;;;;19.25;4.35;;;;;;;16.33;75.74;93800.66;4194679;28;20044;-73
2023/10/26 05:58:27;;;;;;;19.73;5.60;;;;;;;16.33;75.01;93784.81;4208430;28;20605;-72
2023/10/26 06:00:29;;;;;;;20.42;5.80;;;;;;;16.05;75.39;93790.53;4193936;28;20245;-70
2023/10/26 06:02:31;;;;;;;18.20;6.13;;;;;;;16.06;75.94;93804.53;4194565;28;20138;-73
2023/10/26 06:04:33;;;;;;;22.65;5.70;;;;;;;16.13;75.93;93805.28;4211401;28;20128;-72
2023/10/26 06:06:34;;;;;;;20.05;5.38;;;;;;;16.25;76.08;93810.69;4212972;28;20048;-73
2023/10/26 06:08:37;;;;;;;19.25;5.78;;;;;;;16.22;75.62;93805.81;4202221;28;20048;-75
2023/10/26 06:10:39;;;;;;;19.15;5.55;;;;;;;16.02;75.91;93808.63;4212218;28;20047;-73
2023/10/26 06:12:41;;;;;;;19.30;5.60;;;;;;;16.07;76.10;93809.59;4211092;28;20521;-72
2023/10/26 06:14:43;;;;;;;17.65;5.82;;;;;;;16.15;75.77;93801.41;4208574;28;20054;-74
2023/10/26 06:16:45;;;;;;;21.60;6.45;;;;;;;16.25;76.12;93803.56;4196762;28;20063;-72
2023/10/26 06:18:47;;;;;;;23.38;6.07;;;;;;;16.02;76.49;93811.25;4203416;28;20506;-71
2023/10/26 06:20:59;;;;;;;18.35;5.30;;;;;;;16.04;76.48;93798.66;4212324;28;20551;-72
2023/10/26 06:23:00;;;;;;;17.35;5.55;;;;;;;16.12;76.12;93801.84;4190548;28;20052;-74
2023/10/26 06:25:05;;;;;;;21.15;6.05;;;;;;;16.03;75.94;93800.50;4212164;28;20492;-71
2023/10/26 06:27:07;;;;;;;20.10;6.38;;;;;;;15.92;76.64;93790.63;4187421;28;20048;-73
2023/10/26 06:29:10;;;;;;;23.13;6.23;;;;;;;15.93;77.10;93794.88;4189600;28;20074;-73
2023/10/26 06:31:16;;;;;;;24.73;6.53;;;;;;;16.07;77.26;93800.88;4208238;28;20059;-73
2023/10/26 06:33:19;;;;;;;23.80;6.10;;;;;;;16.22;76.81;93793.44;4208262;28;20132;-73
2023/10/26 06:35:21;;;;;;;18.83;6.53;;;;;;;16.05;76.26;93795.81;4207060;28;20060;-73
2023/10/26 06:37:23;;;;;;;24.83;6.47;;;;;;;15.81;77.45;93793.94;4168654;28;20441;-74
2023/10/26 06:39:25;;;;;;;23.60;5.93;;;;;;;15.91;77.81;93813.56;4190964;28;20450;-74
2023/10/26 06:41:27;;;;;;;20.00;6.68;;;;;;;16.05;77.55;93811.66;4210015;28;20044;-75
2023/10/26 06:43:29;;;;;;;21.67;6.80;;;;;;;16.06;77.07;93807.16;4205404;28;20099;-73
2023/10/26 06:45:30;;;;;;;25.60;7.18;;;;;;;16.15;76.92;93811.16;4211509;28;20519;-72
2023/10/26 06:47:33;;;;;;;19.65;6.85;;;;;;;16.25;76.72;93814.13;4202805;28;20076;-73
2023/10/26 06:49:35;;;;;;;28.27;6.70;;;;;;;16.40;76.46;93815.66;4208921;28;20056;-71
2023/10/26 06:51:37;;;;;;;26.15;6.72;;;;;;;16.50;76.18;93806.22;4212597;28;20048;-73
2023/10/26 06:53:40;;;;;;;18.23;7.30;;;;;;;16.24;75.61;93812.53;4213015;28;20040;-74
2023/10/26 06:55:42;;;;;;;24.80;7.57;;;;;;;16.25;75.93;93808.84;4194674;28;20519;-75
2023/10/26 06:57:44;;;;;;;27.10;7.85;;;;;;;16.21;76.51;93807.66;4211686;28;20052;-73
2023/10/26 06:59:46;;;;;;;26.08;8.02;;;;;;;16.32;76.44;93825.47;4212044;28;20044;-72
2023/10/26 07:01:48;;;;;;;26.75;7.28;;;;;;;16.47;76.37;93822.50;4202936;28;20044;-73
2023/10/26 07:04:10;;;;;;;26.80;7.70;;;;;;;16.52;75.92;93816.53;4210979;28;20089;-73
2023/10/26 07:06:12;;;;;;;23.92;6.70;;;;;;;16.42;75.19;93810.97;4212343;28;20044;-72
2023/10/26 07:08:13;;;;;;;31.23;8.93;;;;;;;16.40;75.87;93805.88;4212062;28;20048;-73
2023/10/26 07:10:18;;;;;;;25.73;8.02;;;;;;;16.16;76.33;93832.09;4192404;28;20131;-72
2023/10/26 07:12:20;;;;;;;24.73;7.53;;;;;;;16.17;76.66;93811.75;4211986;28;20048;-71
2023/10/26 07:14:22;;;;;;;26.77;8.18;;;;;;;16.13;77.11;93813.22;4211249;28;20044;-71
2023/10/26 07:16:24;;;;;;;26.33;8.30;;;;;;;16.27;77.32;93827.16;4203545;28;20410;-72
2023/10/26 07:18:26;;;;;;;24.83;8.38;;;;;;;16.43;77.49;93813.38;4210079;28;20055;-71
2023/10/26 07:20:29;;;;;;;24.15;7.88;;;;;;;16.54;76.37;93819.78;4183773;28;20044;-72
2023/10/26 07:22:35;;;;;;;21.90;8.00;;;;;;;16.38;75.92;93818.50;4200605;28;20051;-72
2023/10/26 07:24:36;;;;;;;21.98;8.43;;;;;;;16.19;77.08;93820.28;4207540;28;20044;-72
2023/10/26 07:26:38;;;;;;;34.35;10.43;;;;;;;16.18;77.42;93824.75;4200068;28;20110;-72
2023/10/26 07:28:41;;;;;;;38.75;11.65;;;;;;;15.97;78.24;93812.72;4202234;28;20146;-73
2023/10/26 07:30:43;;;;;;;32.70;11.80;;;;;;;15.87;78.37;93806.28;4211876;28;20047;-71
2023/10/26 07:32:45;;;;;;;29.63;11.77;;;;;;;15.99;77.98;93814.34;4212504;28;20445;-72
2023/10/26 07:34:48;;;;;;;28.97;11.53;;;;;;;16.06;77.81;93817.75;4211247;28;20549;-72
2023/10/26 07:36:50;;;;;;;30.23;11.25;;;;;;;16.29;77.78;93809.25;4211626;28;20280;-72
2023/10/26 07:38:56;;;;;;;31.60;9.38;;;;;;;16.37;76.17;93790.47;4211520;28;20051;-74
2023/10/26 07:41:18;;;;;;;29.60;11.68;;;;;;;16.31;76.07;93802.72;4183987;28;20079;-74
2023/10/26 07:43:41;;;;;;;27.95;10.40;;;;;;;16.28;75.38;93807.59;4209635;28;20076;-71
2023/10/26 07:45:43;;;;;;;31.33;10.10;;;;;;;16.31;75.48;93802.72;4204781;28;20053;-69
2023/10/26 07:47:48;;;;;;;27.48;9.20;;;;;;;16.13;76.16;93800.00;4214862;28;20070;-73
2023/10/26 07:49:50;;;;;;;31.10;10.15;;;;;;;16.11;76.75;93783.53;4214555;28;21235;-73
2023/10/26 07:51:52;;;;;;;29.95;9.73;;;;;;;16.29;76.44;93790.75;4215169;28;20052;-71
2023/10/26 07:53:53;;;;;;;25.20;9.45;;;;;;;16.45;75.95;93792.81;4214723;28;20066;-73
2023/10/26 07:55:57;;;;;;;26.20;9.32;;;;;;;16.56;74.53;93783.38;4214780;28;20109;-73
2023/10/26 07:58:01;;;;;;;32.00;10.55;;;;;;;16.74;74.69;93791.34;4203815;28;20068;-73
2023/10/26 08:00:08;;;;;;;28.85;10.00;;;;;;;16.96;74.07;93767.13;4211988;28;20514;-74
2023/10/26 08:02:10;;;;;;;37.63;13.35;;;;;;;17.01;73.72;93769.09;4194429;28;20051;-73
2023/10/26 08:04:12;;;;;;;33.38;10.32;;;;;;;17.12;73.11;93765.72;4214439;28;20128;-73
2023/10/26 08:06:15;;;;;;;25.67;10.65;;;;;;;17.27;71.81;93766.16;4214980;28;20132;-74
2023/10/26 08:08:18;;;;;;;29.70;7.63;;;;;;;17.34;68.34;93771.38;4214638;28;20052;-73
2023/10/26 08:10:20;;;;;;;24.80;7.07;;;;;;;17.49;67.70;93773.63;4213433;28;20052;-74
2023/10/26 08:12:24;;;;;;;21.95;5.20;;;;;;;17.63;64.46;93763.63;4214692;28;20048;-73
2023/10/26 08:14:29;;;;;;;15.60;4.25;;;;;;;17.83;62.19;93766.03;4214153;28;20526;-71
2023/10/26 08:16:51;;;;;;;16.45;4.10;;;;;;;18.05;60.58;93759.19;4214303;28;20113;-70
2023/10/26 08:18:54;;;;;;;13.90;3.75;;;;;;;18.18;59.52;93764.25;4213061;28;20070;-73
2023/10/26 08:20:56;;;;;;;17.95;3.85;;;;;;;18.35;57.93;93767.03;4209529;28;20075;-74
2023/10/26 08:23:03;;;;;;;20.90;4.07;;;;;;;18.49;57.40;93753.56;4214332;28;20073;-75
2023/10/26 08:25:05;;;;;;;18.77;3.83;;;;;;;18.62;56.88;93748.00;4203630;28;20128;-73
2023/10/26 08:27:09;;;;;;;20.15;3.75;;;;;;;18.75;56.58;93746.97;4211476;28;20138;-74
2023/10/26 08:29:10;;;;;;;20.50;4.35;;;;;;;18.83;55.58;93739.47;4209252;28;20052;-72
2023/10/26 08:31:22;;;;;;;20.42;4.22;;;;;;;18.88;55.49;93744.09;4203064;28;20093;-74
2023/10/26 08:33:24;;;;;;;18.23;3.67;;;;;;;19.02;55.46;93750.75;4185487;28;20056;-74
2023/10/26 08:35:25;;;;;;;13.13;3.60;;;;;;;19.09;54.53;93745.31;4197205;28;20065;-73
2023/10/26 08:37:28;;;;;;;18.08;3.47;;;;;;;19.19;54.84;93740.22;4214076;28;20044;-75
2023/10/26 08:39:30;;;;;;;17.48;3.67;;;;;;;19.17;53.77;93744.94;4213733;28;20447;-73
2023/10/26 08:41:33;;;;;;;15.65;3.90;;;;;;;19.20;53.97;93741.81;4211820;28;20411;-75
2023/10/26 08:43:35;;;;;;;15.90;2.97;;;;;;;19.23;54.07;93738.72;4214043;28;20128;-72
2023/10/26 08:45:38;;;;;;;19.85;3.50;;;;;;;19.33;54.15;93731.97;4187620;28;20055;-75
2023/10/26 08:47:42;;;;;;;15.30;3.30;;;;;;;19.39;54.30;93725.72;4202747;28;20053;-73
2023/10/26 08:49:45;;;;;;;17.15;3.88;;;;;;;19.37;53.46;93728.59;4195770;28;20048;-74
2023/10/26 08:52:00;;;;;;;25.35;3.75;;;;;;;19.39;53.68;93731.81;4197043;28;20110;-73
2023/10/26 08:54:02;;;;;;;15.40;3.15;;;;;;;19.49;53.54;93723.25;4196401;28;20048;-74
2023/10/26 08:56:04;;;;;;;14.18;3.55;;;;;;;19.54;53.72;93723.34;4211038;28;20067;-74
2023/10/26 08:58:07;;;;;;;15.82;3.47;;;;;;;19.57;53.13;93708.75;4195702;28;20088;-74
2023/10/26 09:00:10;;;;;;;14.48;3.47;;;;;;;19.52;52.74;93698.84;4210997;28;20113;-74
2023/10/26 09:02:12;;;;;;;12.10;2.90;;;;;;;19.73;52.65;93707.22;4212723;28;20508;-74
2023/10/26 09:04:15;;;;;;;15.75;3.45;;;;;;;19.91;51.56;93709.66;4195362;28;20685;-75
2023/10/26 09:06:17;;;;;;;19.70;4.30;;;;;;;20.13;51.32;93693.78;4214257;28;20055;-75
2023/10/26 09:08:19;;;;;;;14.93;3.33;;;;;;;20.41;51.09;93687.56;4170812;28;20504;-75
2023/10/26 09:10:32;;;;;;;12.18;3.53;;;;;;;20.72;49.72;93692.53;4213161;28;20134;-75
2023/10/26 09:12:34;;;;;;;15.55;2.55;;;;;;;20.96;49.00;93687.75;4203772;28;20060;-75
2023/10/26 09:14:36;;;;;;;16.13;3.13;;;;;;;21.01;47.82;93687.81;4186812;28;20036;-74
2023/10/26 09:16:38;;;;;;;20.15;2.67;;;;;;;21.23;48.09;93685.94;4195156;28;20106;-74
2023/10/26 09:18:48;;;;;;;10.70;2.70;;;;;;;21.39;47.23;93683.44;4195815;28;20144;-74
2023/10/26 09:21:05;;;;;;;9.32;2.78;;;;;;;21.53;47.62;93694.53;4212660;28;20052;-74
2023/10/26 09:23:07;;;;;;;16.33;3.10;;;;;;;21.53;47.50;93692.69;4194939;28;20465;-76
2023/10/26 09:25:11;;;;;;;17.27;3.45;;;;;;;21.60;49.19;93684.50;4177911;28;20158;-73
2023/10/26 09:27:20;;;;;;;17.15;4.05;;;;;;;21.72;49.43;93700.31;4196150;28;20421;-75
2023/10/26 09:29:39;;;;;;;18.42;4.75;;;;;;;21.53;52.34;93694.53;4211801;28;20060;-73
2023/10/26 09:31:52;;;;;;;14.60;3.03;;;;;;;21.48;47.00;93689.97;4211317;28;20044;-72